Aviation Digital Data Service (ADDS)

Output produced by METARs form (1826 UTC 16 August 2018)
found at http://www.aviationweather.gov/adds/metars/
 
KMAF 161728Z 1618/1718 16011KT P6SM FEW150
       
KMBG 161720Z 1618/1718 VRB05KT P6SM FEW200
       
KMBS 161720Z 1618/1718 12006KT P6SM OVC020 
     TEMPO 1618/1621 4SM -SHRA OVC012 
     FM162200 07003KT P6SM BKN015
       
KMCB 161738Z 1618/1718 15005KT P6SM SKC 
     TEMPO 1620/1624 3SM -RA BKN030 
     FM170200 00000KT P6SM FEW035 SCT110 
     FM171200 22004KT P6SM FEW010
       
KMCC 161738Z 1618/1718 14008KT P6SM SKC 
     FM162100 22007KT P6SM SKC 
     FM170600 16008KT P6SM SKC
       
KMCE 161727Z 1618/1718 31007KT 6SM HZ SKC 
     FM171200 32004KT P6SM SKC
       
TAF KMCF 161600Z 1616/1722 13009KT 9999 FEW020 SCT060 QNH3010INS 
     BECMG 1619/1620 21009KT 8000 -SHRA BKN035 BKN100 QNH3010INS 
     TEMPO 1620/1624 VRB12G18KT 4800 -TSRA BKN035CB 
     BECMG 1701/1702 VRB06KT 9999 NSW SCT025 BKN150 QNH3012INS 
     BECMG 1713/1714 14009KT 9999 SCT020 SCT150 QNH3014INS TX33/1619Z TN25/1709Z
       
KMCI 161722Z 1618/1718 31005KT P6SM SCT250 
     FM162300 32006KT P6SM VCTS BKN060CB 
     TEMPO 1700/1704 VRB15G30KT 2SM TSRA 
     FM170700 34003KT P6SM BKN080 
     FM171000 30003KT 4SM BR SKC 
     FM171300 30005KT P6SM SCT020
       
KMCK 161740Z 1618/1718 36008KT P6SM BKN012 
     TEMPO 1620/1623 FEW015 
     FM162300 05005KT P6SM SKC 
     FM171100 VRB03KT 3SM BR FEW008 SCT025 
     FM171600 VRB03KT P6SM FEW200
       
KMCN 161720Z 1618/1718 24005KT P6SM VCSH SCT045 
     TEMPO 1621/1701 VRB15G25KT 4SM TSRA BKN025CB 
     FM170200 21003KT P6SM SCT035 BKN120 
     FM170800 VRB03KT 5SM BR SCT015 
     FM171500 22005KT P6SM BKN040
       
KMCO 161720Z 1618/1724 14007KT P6SM FEW040 SCT250 
     FM161900 12007KT P6SM VCTS SCT040CB SCT120 
     FM162300 11007KT P6SM VCSH SCT035 BKN120 
     FM170200 13003KT P6SM SCT250 
     FM171400 14008KT P6SM FEW030
       
KMCW 161812Z 1618/1718 VRB03KT 3/4SM +TSRA SCT014 BKN030CB 
     FM161900 34006KT P6SM VCTS BKN035CB BKN080 
     FM170100 33004KT P6SM BKN110 
     FM171000 VRB03KT 3SM BR SCT080 
     FM171100 VRB03KT 2SM BR SCT025
       
KMDT 161804Z 1618/1718 VRB03KT P6SM SCT050 BKN250 
     FM162100 23003KT P6SM BKN250 
     FM170600 VRB03KT 5SM BR VCSH SCT050 OVC080 
     FM171500 16003KT P6SM BKN050 OVC100
       
KMDW 161724Z 1618/1724 08008KT P6SM VCSH BKN035 BKN050 
     FM170200 04004KT P6SM VCSH SCT035 BKN070 
     FM170700 VRB03KT 6SM BR VCSH SCT020 BKN035 
     FM171400 03005KT P6SM SCT020 BKN035 
     FM171800 05009KT P6SM BKN040
       
KMEI 161759Z 1618/1718 18006KT P6SM FEW060 SCT250 
     FM162000 18007KT P6SM VCTS BKN050CB BKN090 
     FM170000 18005KT P6SM BKN050 BKN250
       
KMEM 161739Z 1618/1724 14005KT P6SM SCT060 BKN100 
     FM162000 22009KT P6SM VCTS SCT050CB BKN100 
     FM170000 19006KT P6SM SCT050 BKN250 
     FM171000 20006KT P6SM VCTS SCT030 BKN050CB OVC120 
     FM171400 22007KT P6SM VCSH SCT050 BKN120 
     FM171900 22009KT P6SM VCTS SCT050CB OVC120
       
KMER 161727Z 1618/1718 32007KT 6SM HZ SKC 
     FM171200 32004KT P6SM SKC AMD NOT SKED
       
KMFE 161723Z 1618/1718 15015G23KT P6SM SKC 
     FM170400 14011KT P6SM SCT250 
     FM171500 15012G18KT P6SM FEW040
       
KMFR 161720Z 1618/1718 VRB03KT 3SM FU SKC 
     FM162300 33011G18KT 5SM FU SCT090 
     FM170400 VRB03KT 5SM FU SKC
       
TAF KMGE 161300Z 1613/1719 20006KT 9999 FEW250 QNH3007INS 
     BECMG 1614/1615 21006KT 9999 FEW055 QNH3011INS 
     BECMG 1619/1620 18006KT 9999 VCSH FEW060 BKN100 QNH3011INS 
     BECMG 1700/1701 22006KT 9999 NSW FEW100 QNH3010INS 
     BECMG 1712/1713 23006KT 9999 FEW020 SCT035 QNH3012INS 
     BECMG 1717/1718 22009KT 9000 -SHRA BKN030 QNH3007INS TX32/1621Z TN22/1711Z
       
KMGM 161732Z 1618/1718 VRB04KT P6SM SCT030 SCT250 
     FM161900 15004KT P6SM VCTS BKN050CB 
     FM170300 15003KT P6SM OVC250 
     FM171200 14003KT P6SM OVC050
       
KMGW 161746Z 1618/1718 17003KT P6SM BKN200 
     FM162200 24007KT P6SM -SHRA VCTS BKN060CB 
     FM170000 15003KT P6SM VCSH OVC060 
     FM171500 21008KT P6SM -SHRA OVC025
       
KMHK 161738Z 1618/1718 VRB03KT P6SM FEW040 SCT110 
     FM162000 27005KT P6SM SCT045 BKN100 
     TEMPO 1620/1623 5SM TSRA BKN025CB BKN100 
     FM162300 34005KT P6SM VCTS SCT035CB BKN090 
     FM170200 VRB03KT P6SM SCT015 BKN100 
     FM170900 VRB03KT P6SM BKN010 
     FM171500 01005KT P6SM FEW010
       
KMHR 161738Z 1618/1718 18005KT P6SM SKC 
     FM161900 23007KT P6SM SKC 
     FM170600 16005KT P6SM SKC 
     FM171600 21005KT P6SM SKC
       
KMHT 161724Z 1618/1718 32008KT P6SM BKN060 
     FM170900 03003KT P6SM SCT045 
     FM171600 12005KT P6SM BKN050
       
KMIA 161732Z 1618/1724 11012KT P6SM SCT035 SCT250 
     FM170100 10006KT P6SM SKC 
     FM171400 10012KT P6SM SCT035
       
TAF KMIB 161705Z 1617/1723 01009KT 9000 FU SKC QNH3001INS WND VRB06KT AFT 1700 
     BECMG 1717/1718 22010G15KT 9999 NSW FEW150 QNH3000INS TX32/1620Z TN16/1711Z
       
KMIV 161720Z 1618/1718 23005KT P6SM FEW200 
     FM170800 VRB03KT P6SM SCT150 
     FM171400 20006KT P6SM SCT150
       
KMKE 161734Z 1618/1724 11007KT P6SM SCT020 BKN035 
     FM161900 09006KT P6SM SCT035 BKN110 
     FM171000 VRB04KT P6SM VCSH BKN060 
     FM171900 03008KT P6SM BKN130 
     FM172000 03008KT P6SM SCT150
       
KMKL 161739Z 1618/1718 24008KT P6SM VCSH BKN040 OVC100 
     FM162100 21008KT P6SM VCTS SCT050CB OVC100 
     FM170200 19005KT P6SM SCT050 BKN250 
     FM171000 20006KT P6SM VCTS SCT020 BKN050CB OVC120 
     FM171400 21007KT P6SM VCSH SCT050 BKN120
       
KMKT 161720Z 1618/1718 03006KT P6SM VCTS SCT015 BKN040CB 
     TEMPO 1618/1620 VRB15G30KT 1SM +TSRA BR SCT005 OVC015CB 
     FM162100 03006KT P6SM VCSH SCT025 BKN090 
     TEMPO 1621/1623 4SM -TSRA BKN025CB 
     FM170000 VRB04KT P6SM FEW050 BKN150 
     FM170800 VRB03KT 4SM BR SKC 
     FM171400 36004KT P6SM SKC
       
KMLB 161720Z 1618/1718 12008KT P6SM SCT035 
     FM170300 17003KT P6SM SCT250 
     FM171400 14008KT P6SM FEW030
       
KMLI 161804Z 1618/1718 VRB05KT P6SM VCTS SCT020CB BKN040 
     FM170300 02003KT 5SM BR VCSH BKN050 
     FM170600 VRB02KT 3SM BR SCT025 BKN100 
     FM171000 VRB03KT 1SM BR SCT003 BKN020 
     FM171300 36005KT 4SM BR SCT008 BKN015
       
KMLS 161720Z 1618/1718 13006KT P6SM FEW150 
     FM170800 16007KT 6SM FU SCT150
       
KMLU 161745Z 1618/1718 23005KT P6SM SCT050 SCT250 
     FM170200 18004KT P6SM FEW250 
     FM171500 24006KT P6SM SCT040 BKN250
       
KMMH 161754Z 1618/1718 12008KT P6SM FEW080 
     FM162100 27014G22KT P6SM SCT080 
     FM170300 29008KT P6SM SKC 
     FM170900 VRB04KT P6SM SKC
       
TAF KMMT 161500Z 1615/1721 20009KT 9999 OVC008 QNH3014INS 
     BECMG 1615/1616 20009KT 9999 SCT050 SCT250 QNH3009INS 
     BECMG 1700/1701 19006KT 9999 SCT050 BKN250 QNH3011INS 
     BECMG 1708/1709 21006KT 6000 BR BKN010 QNH3011INS 
     BECMG 1714/1715 23010G15KT 9999 NSW SCT060 QNH3005INS TX34/1621Z TN22/1712Z
       
KMOB 161721Z 1618/1718 20008KT P6SM FEW025 SCT050 
     FM170100 17004KT P6SM BKN250
       
KMOD 161738Z 1618/1718 33008KT P6SM SKC
       
KMOT 161731Z 1618/1718 02007KT P6SM FEW250 
     FM170200 VRB04KT 6SM FU SKC 
     FM171500 18008KT P6SM FEW250
       
KMPV 161720Z 1618/1718 31008KT P6SM FEW200 
     FM170500 00000KT 2SM BR FEW002 
     FM170600 00000KT 1/4SM FG OVC001 
     FM171000 VRB03KT 1SM BR SCT090 
     FM171200 16005KT P6SM VCSH BKN060 
     FM171500 16009KT 6SM -SHRA BR OVC040
       
KMQY 161726Z 1618/1718 20011KT P6SM SCT050 BKN120 
     TEMPO 1620/1624 3SM -TSRA OVC035CB 
     FM170300 19007KT P6SM VCSH BKN070 BKN150
       
KMRY 161720Z 1618/1718 30007KT P6SM SKC 
     FM162000 28011KT P6SM SKC 
     FM170600 22005KT P6SM BKN007 
     TEMPO 1711/1715 4SM BR OVC004
       
KMRB 161738Z 1618/1718 19005KT P6SM SCT050 BKN250 
     FM170000 VRB03KT P6SM FEW050 BKN250 
     FM171600 21008KT P6SM SCT060 BKN250
       
KMSL 161722Z 1618/1718 23010KT P6SM SCT035 BKN250 
     FM170000 18005KT P6SM SCT040 OVC250 
     FM171400 20008KT P6SM SCT015 OVC035
       
KMSO 161720Z 1618/1718 VRB03KT P6SM SKC 
     FM162100 33011KT 6SM HZ SCT100 BKN150 
     FM170200 34004KT 6SM HZ SKC
       
KMSN 161734Z 1618/1718 VRB04KT P6SM VCSH SCT025 BKN035 
     FM161900 VRB04KT P6SM VCTS BKN035CB 
     TEMPO 1621/1624 4SM TS BKN035CB 
     FM170100 VRB03KT P6SM BKN040 
     FM171000 00000KT 4SM BR BKN030 
     TEMPO 1710/1713 2SM BR 
     FM171300 VRB03KT P6SM BKN040
       
KMSP 161720Z 1618/1724 03005KT P6SM FEW050 BKN150 
     FM162100 01007KT P6SM SCT050 BKN150 
     FM170100 36004KT P6SM SCT150 
     FM171500 35006KT P6SM SKC
       
KMSS 161720Z 1618/1718 29005KT P6SM SKC 
     FM170800 00000KT P6SM BKN120 
     FM170900 00000KT P6SM VCSH BKN120 
     FM171000 VRB03KT P6SM VCSH BKN050 
     FM171200 VRB03KT 6SM -SHRA BR OVC028 
     FM171600 13006KT 6SM -SHRA BR OVC015
       
KMSY 161738Z 1618/1724 17005KT P6SM VCTS SCT020CB 
     TEMPO 1619/1623 VRB20G30KT 3SM TSRA BKN030CB 
     FM170100 VRB03KT P6SM FEW030 SCT110 
     FM171200 20004KT P6SM SCT015 
     PROB30 1713/1718 4SM TSRA BKN025CB
       
TAF KMTC 161700Z 1617/1723 17006KT 9000 -SHRA SCT007 BKN015 OVC030 QNH2995INS 
     BECMG 1701/1702 27006KT 9999 NSW BKN010 OVC030 QNH2992INS 
     BECMG 1708/1709 30006KT 4800 BR OVC010 QNH2989INS 
     BECMG 1712/1713 33009KT 9000 -SHRA SCT010 BKN025 OVC040 QNH2992INS TX26/1717Z TN21/1705Z
       
KMTH 161720Z 1618/1718 12010KT P6SM SCT025
       
KMTJ 161740Z 1618/1718 31008KT P6SM VCTS FEW100CB SCT250 
     FM162200 25010KT P6SM VCTS SCT090CB BKN130 
     FM170000 15009KT P6SM SCT090 BKN150 
     FM171500 VRB04KT P6SM FEW090 SCT150
       
KMTN 161738Z 1618/1718 16006KT P6SM SCT050 BKN250 
     FM170000 VRB03KT P6SM FEW070 BKN250 
     FM171500 17006KT P6SM SCT090 BKN250
       
KMTW 161748Z 1618/1718 11005KT P6SM SCT040 BKN120 
     FM170000 01003KT P6SM BKN150 
     FM170400 36005KT 4SM BR SCT008 BKN090 
     TEMPO 1706/1709 1SM BR BKN008 
     FM170900 34005KT 2SM BR SCT001 
     TEMPO 1709/1713 1/4SM FG VV001 
     FM171400 02007KT P6SM BKN045 
     FM171600 03008KT P6SM SCT090
       
TAF KMUO 161805Z 1618/1724 VRB06KT 9999 BKN150 QNH3002INS 
     BECMG 1620/1621 32009KT 9999 SCT150 QNH2998INS 
     BECMG 1702/1703 VRB06KT 9999 FEW150 QNH2998INS 
     BECMG 1717/1718 33009KT 9999 VCSH SCT100 QNH3000INS 
     BECMG 1720/1721 VRB20G30KT 9999 VCTS SCT100CB QNH3000INS TX35/1623Z TN17/1711Z
       
KMWH 161720Z 1618/1718 22004KT 3SM FU HZ BKN030 
     FM170800 30005KT 4SM FU HZ VCTS BKN035 BKN100CB 
     FM171200 25005KT 4SM FU HZ SCT090 SCT120
       
TAF KMXF 161100Z 1611/1717 VRB06KT 8000 BR SCT017 QNH3003INS 
     BECMG 1613/1614 15006KT 9999 NSW FEW030 QNH3007INS 
     TEMPO 1620/1623 3200 -TSRA BKN040CB OVC055 
     BECMG 1623/1624 17012KT 9999 FEW030 QNH3008INS 
     BECMG 1708/1709 VRB06KT 6000 BR BKN010 QNH3012INS 
     BECMG 1712/1713 19006KT 9999 NSW FEW020 SCT035 QNH3016INS TX33/1621Z TN22/1611Z
       
KMYL 161736Z 1618/1718 VRB06KT P6SM BKN150 
     TEMPO 1621/1624 20010G16KT
       
KMYR 161720Z 1618/1718 23010KT P6SM SCT040 
     FM170200 21004KT P6SM FEW050 
     FM171400 24006KT P6SM SKC